Search for airport 
image banner adimage banner adimage banner ad
image banner ad

CL68 - Platform Harvest

Located in Santa Maria, United States

ICAO - CL68, IATA -

Data provided by Airmate  

General information

Coordinates: N34°28'9" W120°40'55"
Elevation is 178 feet MSL.
Magnetic variation is 14° East
View others Airports in California

Operational data

Special qualification required
Current time UTC:
Current local time:
Weather at : KLPC - Lompoc ( 29 km )
METAR: KLPC 211019Z AUTO 00000KT 4SM BR OVC006 13/13 A2994 RMK AO2 CIG 003V007
View NOTAMs / SUP AIP / TFR affecting this airport [VIEW]
Communications frequencies: [VIEW]

Runways:

Airport contact information

Address: Santa Maria United States

Satellite view of CL68